createdAt,value
2019-04-26T00:00:46.307Z,4.00
2019-04-26T00:01:57.340Z,2.50
2019-04-26T00:03:02.655Z,3.00
2019-04-26T00:04:05.317Z,3.00
2019-04-26T00:05:09.390Z,3.00
2019-04-26T00:06:14.613Z,3.00
2019-04-26T00:07:23.798Z,3.75
2019-04-26T00:08:26.703Z,3.00
2019-04-26T00:09:36.570Z,3.00
2019-04-26T00:10:51.394Z,3.00
2019-04-26T00:12:16.419Z,3.00
2019-04-26T00:13:41.039Z,3.00
2019-04-26T00:15:02.489Z,3.00
2019-04-26T00:16:30.766Z,3.00
2019-04-26T00:17:52.261Z,3.50
2019-04-26T00:18:57.929Z,3.75
2019-04-26T00:20:02.011Z,3.50
2019-04-26T00:21:04.716Z,3.00
2019-04-26T00:22:08.486Z,3.25
2019-04-26T00:23:12.055Z,3.75
2019-04-26T00:24:15.268Z,4.00
2019-04-26T00:25:18.651Z,3.00
2019-04-26T00:26:22.758Z,3.00
2019-04-26T00:27:25.466Z,4.00
2019-04-26T00:28:28.108Z,3.50
2019-04-26T00:29:31.156Z,6.00
2019-04-26T00:30:34.150Z,4.00
2019-04-26T00:31:36.803Z,4.00
2019-04-26T00:32:39.802Z,6.00
2019-04-26T00:33:42.437Z,4.50
2019-04-26T00:34:47.871Z,3.50
2019-04-26T00:35:50.563Z,3.00
2019-04-26T00:36:53.338Z,3.00
2019-04-26T00:37:55.945Z,3.75
2019-04-26T00:38:59.300Z,6.00
2019-04-26T00:40:01.939Z,3.00
2019-04-26T00:41:04.624Z,4.00
2019-04-26T00:42:07.669Z,3.00
2019-04-26T00:43:10.292Z,5.50
2019-04-26T00:44:14.783Z,3.00
2019-04-26T00:45:18.731Z,3.00
2019-04-26T00:46:23.034Z,2.50
2019-04-26T00:47:25.757Z,4.00
2019-04-26T00:48:28.724Z,4.00
2019-04-26T00:49:43.013Z,6.00
2019-04-26T00:50:35.868Z,6.00
2019-04-26T00:51:38.795Z,4.00
2019-04-26T00:52:41.827Z,4.00
2019-04-26T00:53:44.922Z,6.00
2019-04-26T00:54:47.599Z,4.00
2019-04-26T00:55:50.281Z,3.00
2019-04-26T00:56:52.913Z,4.00
2019-04-26T00:57:55.897Z,3.00
2019-04-26T00:58:58.598Z,3.00
2019-04-26T01:00:01.290Z,3.50
2019-04-26T01:01:04.339Z,3.00
2019-04-26T01:02:25.123Z,3.50
2019-04-26T01:03:27.830Z,3.00
2019-04-26T01:04:31.140Z,3.00
2019-04-26T01:05:35.600Z,3.25
2019-04-26T01:06:40.535Z,3.25
2019-04-26T01:07:46.143Z,3.00
2019-04-26T01:08:51.116Z,3.00
2019-04-26T01:09:53.158Z,4.00
2019-04-26T01:10:59.222Z,4.00
2019-04-26T01:12:03.060Z,3.00
2019-04-26T01:13:05.691Z,3.25
2019-04-26T01:14:08.318Z,5.50
2019-04-26T01:15:11.017Z,6.00
2019-04-26T01:16:14.143Z,4.50
2019-04-26T01:17:17.678Z,3.25
2019-04-26T01:18:22.285Z,4.00
2019-04-26T01:19:25.021Z,3.75
2019-04-26T01:20:27.718Z,3.00
2019-04-26T01:21:30.438Z,3.25
2019-04-26T01:22:33.091Z,4.00
2019-04-26T01:23:36.113Z,3.25
2019-04-26T01:24:38.786Z,4.75
2019-04-26T01:25:44.517Z,3.00
2019-04-26T01:26:47.275Z,3.00
2019-04-26T01:27:50.313Z,3.75
2019-04-26T01:28:53.397Z,3.00
2019-04-26T01:29:56.474Z,3.00
2019-04-26T01:30:59.204Z,3.00
2019-04-26T01:32:01.943Z,4.50
2019-04-26T01:33:05.068Z,3.00
2019-04-26T01:34:07.708Z,4.00
2019-04-26T01:35:10.329Z,4.00
2019-04-26T01:36:13.834Z,6.00
2019-04-26T01:37:16.733Z,3.00
2019-04-26T01:38:20.388Z,4.00
2019-04-26T01:39:24.424Z,3.00
2019-04-26T01:40:28.685Z,3.00
2019-04-26T01:41:40.269Z,4.00
2019-04-26T01:43:07.269Z,3.50
2019-04-26T01:44:27.166Z,3.00
2019-04-26T01:45:48.985Z,4.00
2019-04-26T01:46:52.431Z,3.00
2019-04-26T01:47:55.410Z,4.00
2019-04-26T01:48:58.156Z,3.50
2019-04-26T01:50:00.770Z,3.50
2019-04-26T01:51:03.783Z,3.00
2019-04-26T01:52:06.955Z,4.00
2019-04-26T01:53:09.669Z,4.00
2019-04-26T01:54:12.312Z,3.75
2019-04-26T01:55:14.952Z,3.00
2019-04-26T01:56:17.600Z,4.00
2019-04-26T01:57:20.964Z,3.00
2019-04-26T01:58:25.232Z,3.75
2019-04-26T01:59:29.442Z,3.00
2019-04-26T02:01:00.464Z,3.00
2019-04-26T02:02:28.472Z,3.25
2019-04-26T02:03:31.870Z,4.00
2019-04-26T02:04:36.481Z,3.25
2019-04-26T02:05:39.498Z,3.00
2019-04-26T02:06:42.181Z,5.00
2019-04-26T02:07:44.833Z,3.00
2019-04-26T02:08:47.487Z,3.00
2019-04-26T02:09:50.572Z,3.00
2019-04-26T02:10:53.280Z,3.75
2019-04-26T02:11:56.232Z,3.00
2019-04-26T02:12:58.838Z,3.00
2019-04-26T02:14:01.498Z,4.50
2019-04-26T02:15:04.496Z,3.00
2019-04-26T02:16:07.212Z,5.00
2019-04-26T02:17:09.944Z,3.00
2019-04-26T02:18:12.912Z,3.00
2019-04-26T02:19:15.615Z,3.75
2019-04-26T02:20:18.368Z,4.00
2019-04-26T02:21:30.051Z,2.00
2019-04-26T02:22:39.979Z,3.25
2019-04-26T02:24:04.761Z,3.25
2019-04-26T02:25:07.403Z,3.50
2019-04-26T02:26:28.293Z,3.25
2019-04-26T02:27:34.573Z,4.00
2019-04-26T02:28:37.252Z,4.00
2019-04-26T02:29:39.896Z,3.00
2019-04-26T02:30:42.851Z,3.00
2019-04-26T02:31:45.625Z,4.00
2019-04-26T02:32:48.260Z,3.00
2019-04-26T02:33:50.959Z,3.75
2019-04-26T02:34:53.736Z,3.00
2019-04-26T02:35:56.410Z,3.00
2019-04-26T02:36:59.396Z,4.00
2019-04-26T02:38:02.030Z,3.00
2019-04-26T02:39:05.727Z,4.00
2019-04-26T02:40:08.383Z,4.50
2019-04-26T02:41:11.142Z,3.00
2019-04-26T02:42:13.867Z,3.00
2019-04-26T02:43:16.889Z,3.00
2019-04-26T02:44:21.952Z,3.00
2019-04-26T02:45:44.910Z,3.50
2019-04-26T02:46:54.424Z,3.25
2019-04-26T02:48:18.121Z,3.00
2019-04-26T02:49:27.420Z,1.00
2019-04-26T02:50:36.573Z,4.00
2019-04-26T02:51:40.042Z,4.00
2019-04-26T02:52:42.746Z,3.25
2019-04-26T02:53:45.413Z,3.00
2019-04-26T02:54:48.074Z,4.00
2019-04-26T02:55:52.242Z,4.50
2019-04-26T02:56:55.242Z,5.00
2019-04-26T02:57:57.971Z,3.50
2019-04-26T02:59:01.000Z,3.00
2019-04-26T03:00:03.828Z,3.25
2019-04-26T03:01:06.492Z,3.00
2019-04-26T03:02:09.448Z,3.00
2019-04-26T03:03:12.693Z,3.00
2019-04-26T03:04:15.352Z,3.00
2019-04-26T03:05:22.756Z,3.75
2019-04-26T03:06:25.507Z,3.00
2019-04-26T03:07:28.241Z,4.00
2019-04-26T03:08:33.391Z,5.50
2019-04-26T03:09:36.999Z,3.25
2019-04-26T03:10:40.355Z,4.00
2019-04-26T03:11:43.658Z,4.00
2019-04-26T03:12:46.332Z,4.00
2019-04-26T03:13:54.271Z,4.00
2019-04-26T03:15:28.097Z,7.50
2019-04-26T03:16:53.634Z,3.00
2019-04-26T03:18:02.312Z,5.50
2019-04-26T03:19:18.577Z,4.00
2019-04-26T03:20:21.571Z,3.00
2019-04-26T03:21:24.514Z,4.00
2019-04-26T03:22:27.211Z,4.25
2019-04-26T03:23:45.888Z,4.50
2019-04-26T03:24:37.219Z,6.00
2019-04-26T03:25:42.110Z,5.50
2019-04-26T03:26:44.941Z,5.00
2019-04-26T03:27:47.870Z,4.50
2019-04-26T03:28:50.520Z,3.00
2019-04-26T03:30:05.029Z,6.00
2019-04-26T03:30:58.305Z,3.50
2019-04-26T03:32:01.303Z,4.00
2019-04-26T03:33:04.177Z,3.00
2019-04-26T03:34:07.592Z,4.00
2019-04-26T03:35:28.228Z,6.00
2019-04-26T03:36:37.938Z,6.00
2019-04-26T03:38:05.585Z,5.00
2019-04-26T03:39:15.457Z,5.00
2019-04-26T03:40:36.390Z,4.75
2019-04-26T03:41:41.051Z,6.25
2019-04-26T03:42:44.173Z,6.00
2019-04-26T03:43:46.854Z,4.75
2019-04-26T03:44:49.567Z,6.50
2019-04-26T03:45:52.212Z,5.25
2019-04-26T03:46:54.907Z,5.25
2019-04-26T03:47:57.918Z,7.00
2019-04-26T03:49:00.571Z,6.00
2019-04-26T03:50:03.631Z,4.50
2019-04-26T03:51:06.372Z,6.00
2019-04-26T03:52:09.536Z,8.00
2019-04-26T03:53:14.280Z,4.00
2019-04-26T03:54:16.921Z,4.00
2019-04-26T03:55:19.712Z,5.00
2019-04-26T03:56:26.725Z,6.00
2019-04-26T03:57:36.903Z,6.00
2019-04-26T03:59:01.123Z,5.50
2019-04-26T04:00:24.624Z,8.25
2019-04-26T04:01:27.471Z,5.00
2019-04-26T04:02:41.533Z,7.00
2019-04-26T04:04:00.349Z,8.00
2019-04-26T04:05:11.450Z,4.25
2019-04-26T04:06:17.538Z,4.25
2019-04-26T04:07:35.608Z,6.00
2019-04-26T04:08:24.627Z,8.00
2019-04-26T04:09:29.158Z,8.25
2019-04-26T04:10:31.796Z,4.50
2019-04-26T04:11:37.502Z,4.00
2019-04-26T04:12:41.446Z,6.00
2019-04-26T04:13:48.210Z,5.50
2019-04-26T04:14:48.820Z,6.00
2019-04-26T04:15:51.737Z,6.00
2019-04-26T04:16:58.390Z,4.50
2019-04-26T04:18:02.041Z,6.00
2019-04-26T04:19:04.773Z,7.00
2019-04-26T04:20:23.619Z,5.50
2019-04-26T04:21:42.577Z,4.00
2019-04-26T04:22:46.886Z,6.50
2019-04-26T04:23:49.762Z,6.00
2019-04-26T04:24:53.363Z,6.00
2019-04-26T04:25:56.003Z,6.00
2019-04-26T04:26:59.516Z,5.75
2019-04-26T04:28:03.415Z,8.00
2019-04-26T04:29:18.785Z,4.75
2019-04-26T04:30:21.785Z,7.50
2019-04-26T04:31:24.473Z,8.25
2019-04-26T04:32:27.141Z,8.00
2019-04-26T04:33:29.786Z,6.00
2019-04-26T04:34:32.532Z,7.00
2019-04-26T04:35:35.334Z,5.50
2019-04-26T04:36:38.342Z,6.00
2019-04-26T04:38:02.635Z,6.00
2019-04-26T04:38:47.540Z,4.75
2019-04-26T04:39:50.164Z,8.00
2019-04-26T04:41:13.006Z,6.00
2019-04-26T04:42:21.059Z,10.50
2019-04-26T04:43:38.101Z,8.00
2019-04-26T04:44:44.467Z,8.00
2019-04-26T04:45:55.242Z,9.00
2019-04-26T04:47:24.348Z,7.00
2019-04-26T04:48:36.651Z,6.00
2019-04-26T04:49:44.953Z,6.00
2019-04-26T04:50:52.585Z,8.00
2019-04-26T04:51:55.437Z,9.50
2019-04-26T04:52:58.083Z,8.00
2019-04-26T04:54:00.754Z,7.50
2019-04-26T04:55:07.733Z,9.00
2019-04-26T04:56:08.160Z,9.25
2019-04-26T04:57:11.346Z,11.25
2019-04-26T04:58:14.044Z,9.75
2019-04-26T04:59:16.723Z,6.00
2019-04-26T05:00:33.157Z,10.75
2019-04-26T05:01:52.471Z,7.50
2019-04-26T05:03:01.592Z,10.00
2019-04-26T05:04:07.418Z,8.00
2019-04-26T05:05:19.333Z,9.00
2019-04-26T05:06:41.234Z,9.00
2019-04-26T05:07:45.066Z,8.00
2019-04-26T05:08:50.905Z,10.25
2019-04-26T05:09:56.105Z,10.00
2019-04-26T05:10:58.768Z,6.00
2019-04-26T05:12:01.432Z,8.00
2019-04-26T05:13:04.108Z,6.50
2019-04-26T05:14:07.170Z,8.50
2019-04-26T05:15:11.472Z,8.75
2019-04-26T05:16:18.951Z,5.75
2019-04-26T05:17:21.794Z,10.00
2019-04-26T05:18:24.467Z,10.25
2019-04-26T05:19:32.989Z,9.50
2019-04-26T05:20:35.634Z,9.00
2019-04-26T05:21:38.773Z,6.00
2019-04-26T05:22:41.437Z,9.75
2019-04-26T05:23:45.678Z,8.00
2019-04-26T05:24:49.156Z,8.00
2019-04-26T05:26:02.273Z,9.75
2019-04-26T05:27:22.148Z,6.00
2019-04-26T05:28:27.470Z,8.00
2019-04-26T05:29:30.316Z,9.50
2019-04-26T05:44:05.059Z,9.50
2019-04-26T05:45:26.522Z,10.00
2019-04-26T05:46:37.007Z,9.00
2019-04-26T05:48:05.311Z,7.75
2019-04-26T05:49:05.131Z,11.50
2019-04-26T05:50:13.863Z,8.50
2019-04-26T05:51:24.244Z,12.50
2019-04-26T05:52:28.917Z,9.50
2019-04-26T05:53:51.048Z,11.50
2019-04-26T05:55:04.614Z,8.00
2019-04-26T05:56:12.377Z,9.00
2019-04-26T05:57:19.026Z,11.50
2019-04-26T05:58:21.755Z,10.00
2019-04-26T05:59:24.538Z,10.50
2019-04-26T06:00:50.412Z,11.50
2019-04-26T06:02:23.163Z,10.00
2019-04-26T06:03:32.461Z,11.50
2019-04-26T06:05:03.111Z,8.00
2019-04-26T06:06:17.859Z,8.00
2019-04-26T06:07:33.314Z,11.50
2019-04-26T06:08:43.392Z,10.00
2019-04-26T06:10:03.568Z,10.00
2019-04-26T06:11:14.960Z,12.00
2019-04-26T06:12:18.470Z,13.00
2019-04-26T06:13:39.235Z,10.75
2019-04-26T06:15:03.572Z,9.00
2019-04-26T06:16:14.939Z,8.00
2019-04-26T06:17:45.606Z,8.00
2019-04-26T06:19:01.923Z,8.00
2019-04-26T06:20:07.372Z,9.50
2019-04-26T06:21:10.179Z,13.00
2019-04-26T06:22:13.002Z,11.75
2019-04-26T06:23:15.829Z,10.50
2019-04-26T06:24:18.736Z,10.75
2019-04-26T06:25:26.266Z,15.00
2019-04-26T06:26:34.718Z,12.75
2019-04-26T06:27:50.568Z,10.25
2019-04-26T06:28:53.461Z,13.75
2019-04-26T06:29:59.738Z,10.00
2019-04-26T06:31:03.490Z,9.75
2019-04-26T06:32:06.362Z,10.75
2019-04-26T06:33:10.303Z,11.50
2019-04-26T06:34:13.211Z,14.00
2019-04-26T06:35:16.158Z,11.00
2019-04-26T06:36:24.733Z,9.50
2019-04-26T06:37:37.232Z,14.25
2019-04-26T06:38:57.833Z,9.00
2019-04-26T06:40:02.224Z,13.00
2019-04-26T06:41:05.089Z,10.50
2019-04-26T06:42:08.668Z,13.00
2019-04-26T06:43:18.376Z,14.50
2019-04-26T06:44:26.207Z,14.50
2019-04-26T06:45:46.155Z,11.00
2019-04-26T06:47:04.607Z,12.75
2019-04-26T06:48:12.779Z,13.00
2019-04-26T06:49:36.213Z,14.50
2019-04-26T06:50:42.882Z,17.00
2019-04-26T06:51:45.694Z,10.00
2019-04-26T06:52:48.632Z,11.00
2019-04-26T06:53:51.465Z,11.75
2019-04-26T06:54:54.157Z,9.50
2019-04-26T06:56:03.043Z,15.50
2019-04-26T06:57:14.162Z,11.75
2019-04-26T06:58:17.066Z,15.00
2019-04-26T06:59:19.752Z,6.00
2019-04-26T07:00:29.001Z,14.75
2019-04-26T07:01:32.682Z,15.00
2019-04-26T07:02:35.926Z,10.75
2019-04-26T07:03:38.805Z,14.75
2019-04-26T07:04:43.999Z,15.00
2019-04-26T07:05:46.574Z,12.50
2019-04-26T07:06:49.515Z,13.00
2019-04-26T07:07:52.320Z,15.00
2019-04-26T07:08:57.748Z,13.00
2019-04-26T07:10:00.456Z,14.50
2019-04-26T07:11:04.797Z,14.50
2019-04-26T07:12:26.851Z,10.50
2019-04-26T07:13:43.262Z,15.00
2019-04-26T07:14:48.838Z,12.75
2019-04-26T07:15:53.810Z,12.00
2019-04-26T07:16:56.513Z,9.50
2019-04-26T07:18:04.413Z,12.75
2019-04-26T07:19:08.170Z,13.00
2019-04-26T07:20:30.329Z,13.00
2019-04-26T07:21:39.458Z,16.00
2019-04-26T07:22:54.996Z,13.75
2019-04-26T07:24:18.810Z,13.75
2019-04-26T07:25:23.508Z,14.50
2019-04-26T07:26:26.683Z,13.50
2019-04-26T07:27:29.503Z,10.75
2019-04-26T07:28:37.085Z,14.25
2019-04-26T07:29:39.427Z,16.50
2019-04-26T07:30:43.048Z,17.50
2019-04-26T07:31:47.803Z,13.75
2019-04-26T07:32:57.315Z,16.00
2019-04-26T07:34:00.813Z,14.50
2019-04-26T07:35:08.700Z,17.50
2019-04-26T07:36:12.015Z,10.25
2019-04-26T07:37:14.897Z,13.75
2019-04-26T07:38:18.113Z,15.75
2019-04-26T07:39:33.398Z,13.00
2019-04-26T07:40:43.488Z,13.00
2019-04-26T07:41:51.447Z,15.75
2019-04-26T07:43:01.843Z,14.50
2019-04-26T07:44:07.653Z,18.25
2019-04-26T07:45:17.687Z,17.25
2019-04-26T07:46:22.928Z,16.00
2019-04-26T07:47:25.806Z,13.00
2019-04-26T07:48:28.659Z,15.50
2019-04-26T07:49:34.927Z,13.00
2019-04-26T07:50:38.093Z,11.50
2019-04-26T07:51:41.363Z,14.00
2019-04-26T07:52:44.311Z,14.75
2019-04-26T07:53:47.175Z,13.25
2019-04-26T07:54:50.057Z,10.75
2019-04-26T07:55:57.617Z,12.00
2019-04-26T07:57:04.523Z,11.00
2019-04-26T07:58:09.002Z,13.25
2019-04-26T07:59:12.865Z,15.50
2019-04-26T08:00:16.196Z,16.00
2019-04-26T08:01:29.818Z,16.25
2019-04-26T08:03:05.472Z,17.75
2019-04-26T08:04:13.976Z,15.00
2019-04-26T08:05:26.577Z,12.25
2019-04-26T08:06:32.725Z,15.75
2019-04-26T08:07:37.179Z,16.00
2019-04-26T08:08:44.813Z,13.50
2019-04-26T08:09:59.994Z,18.00
2019-04-26T08:10:57.008Z,14.50
2019-04-26T08:12:00.247Z,25.50
2019-04-26T08:13:04.439Z,15.25
2019-04-26T08:14:08.508Z,16.00
2019-04-26T08:15:39.506Z,13.00
2019-04-26T08:17:01.110Z,15.75
2019-04-26T08:18:13.053Z,15.00
2019-04-26T08:19:16.004Z,17.50
2019-04-26T08:20:22.854Z,13.50
2019-04-26T08:21:48.108Z,13.00
2019-04-26T08:22:53.038Z,15.75
2019-04-26T08:24:03.236Z,13.00
2019-04-26T08:25:13.093Z,14.50
2019-04-26T08:26:15.946Z,17.50
2019-04-26T08:27:23.528Z,17.50
2019-04-26T08:28:23.270Z,14.50
2019-04-26T08:29:26.391Z,19.50
2019-04-26T08:30:34.245Z,16.25
2019-04-26T08:31:37.114Z,17.00
2019-04-26T08:32:42.656Z,16.00
2019-04-26T08:33:49.865Z,13.00
2019-04-26T08:34:53.193Z,13.00
2019-04-26T08:35:59.036Z,11.00
2019-04-26T08:37:20.632Z,16.00
2019-04-26T08:38:23.513Z,15.25
2019-04-26T08:39:44.469Z,19.00
2019-04-26T08:40:39.187Z,16.50
2019-04-26T08:41:43.843Z,16.00
2019-04-26T08:42:57.318Z,13.00
2019-04-26T08:44:24.145Z,19.50
2019-04-26T08:45:37.206Z,16.75
2019-04-26T08:46:58.853Z,13.00
2019-04-26T08:48:27.725Z,17.25
2019-04-26T08:49:47.395Z,16.00
2019-04-26T08:50:53.434Z,14.00
2019-04-26T08:51:57.509Z,15.00
2019-04-26T08:53:00.489Z,15.00
2019-04-26T08:54:04.603Z,16.50
2019-04-26T08:55:14.230Z,15.00
2019-04-26T08:56:25.058Z,13.00
2019-04-26T08:57:27.919Z,20.00
2019-04-26T08:58:30.867Z,13.00
2019-04-26T08:59:34.713Z,18.25
2019-04-26T09:00:53.515Z,13.50
2019-04-26T09:02:15.651Z,19.50
2019-04-26T09:03:37.209Z,15.50
2019-04-26T09:04:48.480Z,12.50
2019-04-26T09:06:22.372Z,14.25
2019-04-26T09:07:28.805Z,13.75
2019-04-26T09:08:32.094Z,15.75
2019-04-26T09:09:40.021Z,18.00
2019-04-26T09:10:44.238Z,18.50
2019-04-26T09:11:58.910Z,16.00
2019-04-26T09:12:51.551Z,17.00
2019-04-26T09:13:54.510Z,16.00
2019-04-26T09:14:57.429Z,17.50
2019-04-26T09:16:00.388Z,17.75
2019-04-26T09:17:06.379Z,16.75
2019-04-26T09:18:12.783Z,14.50
2019-04-26T09:19:15.788Z,20.00
2019-04-26T09:20:28.625Z,11.50
2019-04-26T09:21:38.786Z,16.75
2019-04-26T09:23:03.874Z,13.75
2019-04-26T09:24:26.677Z,13.25
2019-04-26T09:25:34.421Z,18.50
2019-04-26T09:26:59.518Z,13.75
2019-04-26T09:28:25.850Z,14.75
2019-04-26T09:29:49.300Z,16.50
2019-04-26T09:30:57.671Z,13.25
2019-04-26T09:32:11.979Z,18.00
2019-04-26T09:33:20.547Z,11.75
2019-04-26T09:34:23.851Z,15.00
2019-04-26T09:35:26.918Z,15.25
2019-04-26T09:36:30.199Z,13.75
2019-04-26T09:37:35.278Z,14.00
2019-04-26T09:38:38.094Z,13.00
2019-04-26T09:39:43.284Z,19.75
2019-04-26T09:40:47.728Z,15.50
2019-04-26T09:41:51.654Z,20.50
2019-04-26T09:43:10.286Z,15.75
2019-04-26T09:44:37.616Z,14.00
2019-04-26T09:46:06.335Z,12.75
2019-04-26T09:47:24.056Z,19.00
2019-04-26T09:48:36.831Z,20.25
2019-04-26T09:50:01.410Z,15.75
2019-04-26T09:51:07.288Z,12.75
2019-04-26T09:52:15.961Z,17.00
2019-04-26T09:53:23.424Z,16.00
2019-04-26T09:54:26.719Z,15.25
2019-04-26T09:55:35.463Z,23.25
2019-04-26T09:56:35.810Z,15.50
2019-04-26T09:57:46.255Z,16.00
2019-04-26T09:58:50.212Z,11.00
2019-04-26T09:59:53.044Z,21.00
2019-04-26T10:00:56.347Z,19.50
2019-04-26T10:02:00.270Z,18.00
2019-04-26T10:03:05.487Z,18.25
2019-04-26T10:04:07.629Z,16.00
2019-04-26T10:05:13.578Z,16.50
2019-04-26T10:06:18.057Z,15.50
2019-04-26T10:07:22.621Z,18.25
2019-04-26T10:08:27.637Z,17.50
2019-04-26T10:09:38.125Z,16.25
2019-04-26T10:10:42.697Z,17.00
2019-04-26T10:11:51.311Z,19.00
2019-04-26T10:13:25.314Z,13.00
2019-04-26T10:14:58.773Z,11.75
2019-04-26T10:16:12.655Z,12.00
2019-04-26T10:17:27.318Z,16.00
2019-04-26T10:18:30.138Z,14.50
2019-04-26T10:19:47.038Z,14.00
2019-04-26T10:20:50.361Z,12.25
2019-04-26T10:21:53.168Z,17.00
2019-04-26T10:22:59.789Z,12.00
2019-04-26T10:24:04.512Z,13.00
2019-04-26T10:25:15.906Z,13.50
2019-04-26T10:26:11.824Z,15.25
2019-04-26T10:27:14.670Z,11.75
2019-04-26T10:28:17.543Z,11.00
2019-04-26T10:29:25.649Z,14.25
2019-04-26T10:42:57.046Z,15.75
2019-04-26T10:44:03.837Z,13.50
2019-04-26T10:45:10.465Z,18.00
2019-04-26T10:46:13.449Z,12.50
2019-04-26T10:47:18.034Z,12.50
2019-04-26T10:48:25.674Z,13.00
2019-04-26T10:49:30.097Z,15.00
2019-04-26T10:50:34.416Z,13.00
2019-04-26T10:51:43.363Z,14.00
2019-04-26T10:53:05.356Z,11.75
2019-04-26T10:54:23.951Z,13.25
2019-04-26T10:55:46.573Z,9.50
2019-04-26T10:56:55.045Z,12.75
2019-04-26T10:58:05.128Z,16.75
2019-04-26T10:59:17.828Z,12.25
2019-04-26T11:00:33.566Z,15.00
2019-04-26T11:01:36.696Z,14.75
2019-04-26T11:02:40.137Z,14.00
2019-04-26T11:03:43.454Z,17.00
2019-04-26T11:04:49.605Z,17.50
2019-04-26T11:06:00.428Z,13.25
2019-04-26T11:07:03.702Z,16.00
2019-04-26T11:08:08.740Z,16.00
2019-04-26T11:09:12.622Z,15.00
2019-04-26T11:10:24.479Z,16.25
2019-04-26T11:11:31.284Z,14.00
2019-04-26T11:12:34.936Z,21.00
2019-04-26T11:13:37.766Z,19.00
2019-04-26T11:14:40.716Z,17.50
2019-04-26T11:15:43.930Z,13.75
2019-04-26T11:16:48.127Z,17.00
2019-04-26T11:17:54.017Z,17.00
2019-04-26T11:19:01.145Z,14.00
2019-04-26T11:20:10.498Z,16.00
2019-04-26T11:21:09.582Z,18.00
2019-04-26T11:22:12.716Z,18.75
2019-04-26T11:23:15.755Z,19.75
2019-04-26T11:24:19.383Z,18.25
2019-04-26T11:25:24.617Z,16.25
2019-04-26T11:26:31.086Z,17.25
2019-04-26T11:27:34.947Z,21.25
2019-04-26T11:28:37.770Z,16.00
2019-04-26T11:29:40.777Z,19.00
2019-04-26T11:30:43.587Z,14.00
2019-04-26T11:31:47.434Z,12.75
2019-04-26T11:32:50.226Z,17.25
2019-04-26T11:34:04.627Z,16.00
2019-04-26T11:34:58.663Z,17.25
2019-04-26T11:36:07.333Z,12.75
2019-04-26T11:37:09.163Z,17.00
2019-04-26T11:38:12.476Z,12.00
2019-04-26T11:39:17.281Z,15.75
2019-04-26T11:40:20.203Z,15.50
2019-04-26T11:41:23.442Z,12.75
2019-04-26T11:42:26.559Z,11.75
2019-04-26T11:43:29.844Z,14.00
2019-04-26T11:44:33.045Z,15.50
2019-04-26T11:45:35.995Z,16.50
2019-04-26T11:46:44.666Z,15.75
2019-04-26T11:47:55.481Z,14.00
2019-04-26T11:48:58.534Z,12.75
2019-04-26T11:49:52.861Z,10.50
2019-04-26T11:50:58.859Z,9.00
2019-04-26T11:52:02.796Z,13.25
2019-04-26T11:53:10.188Z,14.00
2019-04-26T11:54:13.067Z,12.75
2019-04-26T11:55:16.025Z,11.75
2019-04-26T11:56:19.936Z,14.00
2019-04-26T11:57:23.462Z,12.25
2019-04-26T11:58:26.548Z,14.00
2019-04-26T11:59:30.552Z,8.25
2019-04-26T12:00:39.628Z,11.00
2019-04-26T12:01:42.449Z,14.00
2019-04-26T12:02:46.311Z,11.25
2019-04-26T12:04:07.483Z,12.00
2019-04-26T12:05:30.993Z,13.50
2019-04-26T12:06:42.036Z,10.00
2019-04-26T12:07:57.411Z,15.50
2019-04-26T12:09:07.564Z,14.00
2019-04-26T12:10:12.053Z,13.00
2019-04-26T12:11:18.631Z,14.00
2019-04-26T12:12:19.612Z,12.00
2019-04-26T12:13:24.910Z,14.00
2019-04-26T12:14:29.440Z,16.75
2019-04-26T12:15:39.161Z,14.00
2019-04-26T12:16:49.498Z,14.00
2019-04-26T12:17:58.041Z,13.75
2019-04-26T12:18:52.515Z,14.50
2019-04-26T12:19:55.488Z,18.50
2019-04-26T12:21:01.047Z,16.50
2019-04-26T12:22:04.321Z,11.50
2019-04-26T12:23:08.179Z,13.75
2019-04-26T12:24:17.617Z,12.00
2019-04-26T12:25:20.883Z,13.50
2019-04-26T12:26:23.811Z,11.00
2019-04-26T12:27:30.790Z,11.50
2019-04-26T12:28:36.300Z,12.00
2019-04-26T12:29:37.867Z,13.75
2019-04-26T12:30:40.655Z,11.00
2019-04-26T12:31:48.420Z,13.75
2019-04-26T12:32:53.740Z,10.50
2019-04-26T12:33:56.750Z,13.00
2019-04-26T12:35:01.318Z,11.50
2019-04-26T12:36:09.623Z,12.00
2019-04-26T12:37:19.807Z,11.00
2019-04-26T12:38:18.046Z,13.75
2019-04-26T12:39:21.296Z,13.25
2019-04-26T12:40:28.213Z,13.00
2019-04-26T12:41:40.380Z,16.75
2019-04-26T12:42:35.646Z,12.00
2019-04-26T12:43:41.548Z,13.00
2019-04-26T12:45:12.253Z,12.00
2019-04-26T12:46:28.477Z,13.75
2019-04-26T12:47:40.669Z,12.50
2019-04-26T12:48:50.008Z,11.00
2019-04-26T12:49:54.553Z,10.75
2019-04-26T12:50:59.260Z,11.50
2019-04-26T12:52:02.133Z,9.00
2019-04-26T12:53:04.985Z,10.75
2019-04-26T12:54:09.866Z,12.00
2019-04-26T12:55:13.832Z,12.00
2019-04-26T12:56:26.558Z,8.00
2019-04-26T12:57:27.587Z,9.00
2019-04-26T12:58:31.194Z,8.00
2019-04-26T12:59:46.257Z,8.50
2019-04-26T13:00:54.267Z,11.00
2019-04-26T13:02:05.069Z,8.50
2019-04-26T13:02:59.330Z,10.00
2019-04-26T13:04:06.239Z,11.50
2019-04-26T13:05:09.155Z,11.50
2019-04-26T13:06:12.391Z,9.00
2019-04-26T13:07:23.897Z,9.00
2019-04-26T13:08:22.437Z,8.50
2019-04-26T13:09:26.596Z,11.50
2019-04-26T13:10:52.072Z,10.50
2019-04-26T13:12:12.356Z,11.75
2019-04-26T13:13:41.943Z,10.50
2019-04-26T13:15:13.148Z,11.00
2019-04-26T13:16:36.244Z,9.00
2019-04-26T13:17:45.046Z,9.50
2019-04-26T13:18:50.015Z,11.25
2019-04-26T13:19:55.492Z,9.00
2019-04-26T13:20:58.604Z,13.00
2019-04-26T13:22:02.049Z,12.50
2019-04-26T13:23:04.931Z,13.75
2019-04-26T13:24:08.060Z,9.00
2019-04-26T13:25:17.300Z,11.75
2019-04-26T13:26:15.354Z,11.25
2019-04-26T13:27:18.630Z,14.25
2019-04-26T13:28:21.871Z,13.75
2019-04-26T13:29:27.314Z,12.00
2019-04-26T13:30:32.985Z,10.75
2019-04-26T13:31:36.070Z,11.00
2019-04-26T13:32:40.053Z,10.75
2019-04-26T13:33:44.766Z,11.75
2019-04-26T13:34:48.684Z,11.00
2019-04-26T13:36:02.547Z,12.00
2019-04-26T13:36:59.178Z,14.50
2019-04-26T13:38:05.156Z,14.75
2019-04-26T13:39:07.361Z,12.00
2019-04-26T13:40:10.506Z,12.00
2019-04-26T13:41:13.329Z,11.75
2019-04-26T13:42:17.454Z,12.50
2019-04-26T13:43:30.076Z,13.00
2019-04-26T13:44:51.128Z,13.00
2019-04-26T13:46:06.179Z,10.25
2019-04-26T13:47:39.639Z,13.75
2019-04-26T13:48:49.184Z,14.25
2019-04-26T13:50:03.638Z,14.75
2019-04-26T13:51:08.374Z,13.75
2019-04-26T13:52:11.221Z,12.25
2019-04-26T13:53:14.023Z,10.25
2019-04-26T13:54:21.048Z,12.00
2019-04-26T13:55:25.367Z,14.75
2019-04-26T13:56:32.167Z,12.50
2019-04-26T13:57:40.245Z,15.50
2019-04-26T13:58:46.190Z,14.00
2019-04-26T13:59:51.795Z,15.00
2019-04-26T14:01:02.070Z,12.00
2019-04-26T14:02:11.506Z,13.75
2019-04-26T14:03:17.316Z,14.50
2019-04-26T14:04:21.214Z,12.00
2019-04-26T14:05:26.895Z,15.00
2019-04-26T14:06:29.788Z,12.25
2019-04-26T14:07:37.203Z,14.50
2019-04-26T14:08:42.313Z,12.25
2019-04-26T14:09:46.260Z,12.00
2019-04-26T14:10:51.352Z,17.75
2019-04-26T14:11:54.388Z,16.75
2019-04-26T14:13:00.278Z,12.00
2019-04-26T14:14:06.406Z,12.00
2019-04-26T14:15:10.247Z,16.25
2019-04-26T14:16:21.233Z,16.50
2019-04-26T14:17:25.962Z,12.25
2019-04-26T14:18:34.475Z,18.00
2019-04-26T14:19:37.834Z,17.25
2019-04-26T14:20:42.231Z,16.75
2019-04-26T14:21:47.748Z,12.75
2019-04-26T14:23:15.597Z,14.75
2019-04-26T14:24:44.076Z,16.50
2019-04-26T14:26:07.156Z,14.00
2019-04-26T14:27:22.779Z,15.00
2019-04-26T14:28:30.098Z,17.00
2019-04-26T14:29:34.451Z,15.75
2019-04-26T14:30:41.424Z,15.00
2019-04-26T14:31:47.269Z,16.00
2019-04-26T14:32:48.905Z,15.00
2019-04-26T14:33:51.769Z,16.00
2019-04-26T14:34:54.619Z,13.00
2019-04-26T14:35:57.457Z,12.25
2019-04-26T14:37:06.714Z,15.00
2019-04-26T14:38:09.756Z,16.75
2019-04-26T14:39:14.935Z,14.25
2019-04-26T14:40:17.891Z,13.00
2019-04-26T14:41:23.593Z,13.75
2019-04-26T14:42:33.736Z,12.75
2019-04-26T14:43:40.591Z,18.00
2019-04-26T14:44:34.697Z,12.50
2019-04-26T14:45:39.890Z,10.50
2019-04-26T14:46:48.740Z,14.75
2019-04-26T14:47:52.172Z,12.50
2019-04-26T14:49:01.923Z,15.00
2019-04-26T14:50:13.095Z,14.75
2019-04-26T14:51:08.155Z,15.00
2019-04-26T14:52:09.969Z,15.25
2019-04-26T14:53:12.850Z,13.00
2019-04-26T14:54:15.947Z,13.75
2019-04-26T14:55:21.320Z,17.50
2019-04-26T14:56:29.449Z,14.75
2019-04-26T14:57:32.177Z,17.00
2019-04-26T14:58:36.063Z,14.25
2019-04-26T15:00:05.010Z,12.25
2019-04-26T15:01:12.422Z,11.75
2019-04-26T15:02:47.233Z,14.50
2019-04-26T15:03:51.494Z,14.00
2019-04-26T15:05:09.273Z,18.00
2019-04-26T15:06:22.240Z,14.00